Latest Coastal Weather Observations for Maatsuyker Island

IDT60701

Issued at 4:12 pm EST Wednesday 24 May 2017 (issued every 10 minutes, with the page automatically refreshed every 10 minutes)

About coastal observations | Map of coastal stations | Coastal observations for TAS | Marine services | Other Formats
Station Details ID: 094041 Name: MAATSUYKER ISLAND LIGHTHOUSE Lat: -43.66 Lon: 146.27 Height: 146.5 m
Data from the previous 72 hours. | See also: Recent months at Maatsuyker Island
Date/Time
EST
Temp
°C
Wind Pressure Rain since
9am
mm
Weather Cloud Vis
km
Sea
Height
m
Swell
Dir  Spd
kts
Gust
kts
hPa Trend Height
m
Period
s
Dir
24/04:00pm 10.7 NW 35 42 1007.0 - 1.0 - - - - - - -
24/03:30pm 11.4 NW 34 39 1007.1 - 1.0 - - - - - - -
24/03:00pm 11.2 NW 36 40 1006.8 - 1.0 - - - - - - -
24/02:30pm 11.3 NW 32 36 1006.4 - 1.0 - - - - - - -
24/02:00pm 11.2 NW 32 37 1006.2 - 1.0 - - - - - - -
24/01:30pm 11.0 NW 30 34 1006.3 - 1.0 - - - - - - -
24/01:00pm 10.6 NW 35 43 1005.9 - 1.0 - - - - - - -
24/12:52pm 11.1 NW 33 43 1005.8 - 1.0 - - - - - - -
24/12:30pm 11.2 NW 33 37 1006.0 - 1.0 - - - - - - -
24/12:00pm 11.2 NW 33 38 1006.4 - 1.0 - - - - - - -
24/11:30am 11.1 NW 34 41 1006.0 - 1.0 - - - - - - -
24/11:00am 10.9 NW 34 39 1005.5 - 1.0 - - - - - - -
24/10:30am 10.5 WNW 36 41 1005.4 - 0.8 - - - - - - -
24/10:00am 10.5 WNW 37 42 1004.6 - 0.8 - - - - - - -
24/09:30am 10.7 NW 37 41 1003.7 - 0.8 - - - - - - -
24/09:27am 10.6 NW 37 40 1003.7 - 0.8 - - - - - - -
24/09:14am 10.9 NNW 25 41 1003.6 - 0.2 - - - - - - -
24/09:00am 10.4 NNW 21 29 1004.6 S 4.6 Distant precip. Mostly cloudy 18 <0.5 1.5 11 W
24/08:30am 10.2 NNW 17 22 1004.2 - 3.8 - - - - - - -
24/08:03am 10.8 NNW 21 31 1003.9 - 2.6 - - - - - - -
24/08:00am 10.9 NNW 20 24 1003.9 - 2.4 - - - - - - -
24/07:59am 10.9 NW 20 23 1003.9 - 2.4 - - - - - - -
24/07:30am 10.3 N 15 22 1003.8 - 2.4 - - - - - - -
24/07:00am 10.7 NNW 18 25 1003.9 - 2.0 - - - - - - -
24/06:30am 11.3 N 15 21 1003.9 - 1.2 - - - - - - -
24/06:00am 11.5 NNW 16 23 1004.1 F 1.2 Rain Cloudy 10 <0.1 1.5 13 SW
24/05:30am 12.3 N 15 19 1003.9 - 1.2 - - - - - - -
24/05:00am 12.2 N 12 17 1004.0 - 1.2 - - - - - - -
24/04:30am 12.1 NNW 11 14 1004.5 - 1.2 - - - - - - -
24/04:00am 12.0 N 11 16 1004.6 - 1.2 - - - - - - -
24/03:30am 12.0 N 13 19 1005.0 - 1.2 - - - - - - -
24/03:00am 11.8 N 11 16 1005.7 - 1.2 - - - - - - -
24/02:30am 11.7 N 12 17 1005.8 - 1.2 - - - - - - -
24/02:00am 11.8 NNW 10 14 1006.3 - 1.2 - - - - - - -
24/01:30am 12.3 NNW 13 18 1006.8 - 1.2 - - - - - - -
24/01:00am 11.9 NNW 14 18 1006.9 - 1.2 - - - - - - -
24/12:30am 11.6 N 12 16 1007.4 - 1.2 - - - - - - -
24/12:00am 11.3 N 9 13 1008.2 - 1.2 - - - - - - -
 
Date/Time
EST
Temp
°C
Wind Pressure Rain since
9am
mm
Weather Cloud Vis
km
Sea
Height
m
Swell
Dir  Spd
kts
Gust
kts
hPa Trend Height
m
Period
s
Dir
23/11:30pm 11.3 N 10 13 1008.3 - 1.2 - - - - - - -
23/11:00pm 11.5 N 11 15 1008.7 - 1.2 - - - - - - -
23/10:30pm 11.8 N 14 19 1009.0 - 1.2 - - - - - - -
23/10:00pm 11.5 N 13 16 1009.3 - 1.2 - - - - - - -
23/09:30pm 11.5 N 11 16 1009.5 - 1.2 - - - - - - -
23/09:00pm 11.6 NNW 11 16 1010.0 - 1.2 - - - - - - -
23/08:30pm 11.8 NNW 13 17 1010.0 - 1.2 - - - - - - -
23/08:00pm 11.8 N 11 15 1010.0 - 1.2 - - - - - - -
23/07:30pm 12.1 NNW 9 15 1010.2 - 1.2 - - - - - - -
23/07:00pm 12.3 NNW 10 16 1010.0 - 1.2 - - - - - - -
23/06:30pm 12.2 N 9 12 1010.2 - 1.2 - - - - - - -
23/06:00pm 12.2 NNW 10 14 1010.4 - 1.2 - - - - - - -
23/05:30pm 12.5 NNW 9 12 1010.3 - 1.2 - - - - - - -
23/05:00pm 12.6 NNW 9 12 1010.1 - 1.2 - - - - - - -
23/04:30pm 12.7 NNW 9 11 1010.2 - 1.2 - - - - - - -
23/04:00pm 12.9 NNW 10 13 1010.3 - 1.2 - - - - - - -
23/03:30pm 13.5 NNW 11 14 1010.3 - 1.2 - - - - - - -
23/03:00pm 13.5 NW 12 15 1010.7 - 1.2 - - - - - - -
23/02:30pm 13.7 NNW 11 14 1010.5 - 1.2 - - - - - - -
23/02:00pm 13.4 NNW 10 13 1010.7 - 1.2 - - - - - - -
23/01:30pm 12.8 NNW 9 13 1011.0 - 1.2 - - - - - - -
23/01:00pm 12.8 NNW 12 17 1011.4 - 1.2 - - - - - - -
23/12:30pm 12.9 NNW 13 16 1011.6 - 1.2 - - - - - - -
23/12:00pm 12.9 NNW 10 14 1012.1 - 1.2 - - - - - - -
23/11:30am 12.6 NNW 14 18 1012.1 - 1.2 - - - - - - -
23/11:00am 12.5 NNW 15 19 1012.4 - 1.0 - - - - - - -
23/10:30am 12.5 N 13 17 1012.3 - 0.8 - - - - - - -
23/10:00am 12.7 N 16 23 1012.1 - 0.8 - - - - - - -
23/09:30am 12.7 NNW 17 23 1012.0 - 0.6 - - - - - - -
23/09:00am 13.2 NNW 22 30 1012.1 - 2.0 Showers Mostly cloudy 10 <0.1 1.5 13 S
23/08:30am 13.3 NNW 19 27 1012.1 - - - - - - - - -
23/06:00am - NW 15 - - - - Fine Mostly cloudy 20 <0.5 1.5 13 SW
23/03:00am 15.6 N 11 16 1012.5 - 0.2 - - - - - - -
23/02:30am 15.6 N 11 19 1012.7 - 0.0 - - - - - - -
23/02:00am 15.8 N 14 22 1012.8 - 0.0 - - - - - - -
23/01:30am 14.9 N 14 20 1013.1 - 0.0 - - - - - - -
23/01:00am 14.9 N 17 24 1013.7 - 0.0 - - - - - - -
23/12:30am 16.3 N 11 15 1013.9 - 0.0 - - - - - - -
23/12:00am 16.6 N 12 17 1014.2 - 0.0 - - - - - - -
 
Date/Time
EST
Temp
°C
Wind Pressure Rain since
9am
mm
Weather Cloud Vis
km
Sea
Height
m
Swell
Dir  Spd
kts
Gust
kts
hPa Trend Height
m
Period
s
Dir
22/11:30pm 16.8 N 14 20 1014.1 - 0.0 - - - - - - -
22/11:00pm 16.8 N 13 19 1014.2 - 0.0 - - - - - - -
22/10:30pm 16.8 N 12 19 1014.3 - 0.0 - - - - - - -
22/10:00pm 16.3 N 10 16 1014.5 - 0.0 - - - - - - -
22/09:30pm 16.0 N 11 15 1014.6 - 0.0 - - - - - - -
22/09:00pm 15.9 N 10 16 1014.8 - 0.0 - - - - - - -
22/08:30pm 15.7 N 10 15 1014.8 - 0.0 - - - - - - -
22/08:00pm 15.7 N 10 15 1014.9 - 0.0 - - - - - - -
22/07:30pm 15.5 N 9 13 1015.2 - 0.0 - - - - - - -
22/07:00pm 15.7 N 9 12 1015.3 - 0.0 - - - - - - -
22/06:30pm 15.8 N 10 13 1015.2 - 0.0 - - - - - - -
22/06:00pm 16.0 N 9 14 1015.6 - 0.0 - - - - - - -
22/05:30pm 16.0 N 11 14 1015.3 - 0.0 - - - - - - -
22/05:00pm 15.8 N 11 15 1015.1 - 0.0 - - - - - - -
22/04:30pm 15.9 N 11 15 1015.1 - 0.0 - - - - - - -
22/04:00pm 15.4 NNW 9 12 1015.3 - 0.0 - - - - - - -
22/03:30pm 15.6 NNW 13 18 1015.2 - 0.0 - - - - - - -
22/03:00pm 15.4 NNW 17 20 1015.5 - 0.0 - - - - - - -
22/02:30pm 15.8 NNW 13 16 1015.5 - 0.0 - - - - - - -
22/02:00pm 15.4 NNW 12 15 1015.7 - 0.0 - - - - - - -
22/01:30pm 15.4 NNW 14 17 1015.8 - 0.0 - - - - - - -
22/01:00pm 16.0 N 15 19 1016.0 - 0.0 - - - - - - -
22/12:30pm 15.6 N 17 20 1016.0 - 0.0 - - - - - - -
22/12:00pm 15.0 NNW 18 21 1016.3 - 0.0 - - - - - - -
22/11:30am 15.0 NNW 18 23 1016.6 - 0.0 - - - - - - -
22/11:00am 14.4 NNW 16 21 1016.9 - 0.0 - - - - - - -
22/10:30am 14.2 NNW 18 21 1017.0 - 0.0 - - - - - - -
22/10:00am 13.6 NNW 17 21 1017.1 - 0.0 - - - - - - -
22/09:30am 13.6 NNW 18 23 1017.2 - 0.0 - - - - - - -
22/09:00am 13.5 NNW 19 23 1017.2 R 0.8 - - - - - - -
22/08:30am 13.5 NNW 20 27 1017.0 - 0.8 - - - - - - -
22/08:00am 13.6 NNW 22 30 1016.6 - 0.8 - - - - - - -
22/07:30am 13.5 NNW 20 29 1016.4 - 0.8 - - - - - - -
22/07:00am 13.3 NNW 20 27 1016.2 - 0.8 - - - - - - -
22/06:39am 13.4 NNW 19 29 1016.2 - 0.8 - - - - - - -
22/06:30am 13.3 NNW 19 23 1016.4 - 0.8 - - - - - - -
22/06:00am 13.2 NNW 20 24 1016.5 S 0.8 Fine Mostly cloudy 20 <0.5 2.0 14 SW
22/05:30am 13.3 NNW 25 29 1015.9 - 0.8 - - - - - - -
22/05:00am 13.3 NNW 19 25 1015.9 - 0.8 - - - - - - -
22/04:30am 13.5 NNW 21 27 1015.8 - 0.8 - - - - - - -
22/04:00am 13.2 NNW 18 24 1015.8 - 0.8 - - - - - - -
22/03:30am 13.1 NNW 19 24 1015.7 - 0.8 - - - - - - -
22/03:00am 13.1 NNW 18 22 1016.3 - 0.8 - - - - - - -
22/02:30am 12.9 NNW 18 24 1016.1 - 0.8 - - - - - - -
22/02:00am 12.7 NNW 18 21 1015.9 - 0.8 - - - - - - -
22/01:30am 12.6 NNW 17 21 1016.1 - 0.8 - - - - - - -
22/01:00am 12.6 NNW 17 21 1016.2 - 0.8 - - - - - - -
22/12:30am 12.9 NNW 15 20 1016.5 - 0.8 - - - - - - -
22/12:00am 12.9 NNW 15 19 1016.9 - 0.8 - - - - - - -
 
Date/Time
EST
Temp
°C
Wind Pressure Rain since
9am
mm
Weather Cloud Vis
km
Sea
Height
m
Swell
Dir  Spd
kts
Gust
kts
hPa Trend Height
m
Period
s
Dir
21/11:30pm 13.1 NNW 15 22 1016.7 - 0.8 - - - - - - -
21/11:00pm 13.0 NNW 14 17 1016.8 - 0.8 - - - - - - -
21/10:30pm 12.9 NNW 15 19 1016.8 - 0.8 - - - - - - -
21/10:00pm 13.0 NNW 17 21 1016.8 - 0.8 - - - - - - -
21/09:30pm 13.0 NNW 13 17 1016.8 - 0.8 - - - - - - -
21/09:00pm 13.0 NNW 14 17 1017.0 - 0.8 - - - - - - -
21/08:30pm 13.2 NNW 14 18 1016.6 - 0.8 - - - - - - -
21/08:00pm 13.3 NNW 16 19 1016.2 - 0.8 - - - - - - -
21/07:30pm 13.1 NNW 15 19 1016.2 - 0.8 - - - - - - -
21/07:00pm 13.3 NNW 14 17 1016.1 - 0.0 - - - - - - -
21/06:30pm 13.3 NNW 14 18 1016.0 - 0.0 - - - - - - -
21/06:00pm 13.5 NNW 13 16 1016.2 - 0.0 - - - - - - -
21/05:30pm 13.7 NNW 11 14 1015.7 - 0.0 - - - - - - -
21/05:00pm 14.0 NNW 13 17 1015.5 - 0.0 - - - - - - -
21/04:30pm 14.2 NNW 13 15 1015.4 - 0.0 - - - - - - -

Other Formats:

Comma delimited format used in spreadsheet applications
http://www.bom.gov.au/fwo/IDT60701/IDT60701.94962.axf

JavaScript Object Notation format (JSON) in row-major order
http://www.bom.gov.au/fwo/IDT60701/IDT60701.94962.json